Time;durP1;ratioP1;P1;durP2;ratioP2;P2;SDS_P1;SDS_P2;PMS_P1;PMS_P2;Temp;Humidity;BMP_temperature;BMP_pressure;BME280_temperature;BME280_humidity;BME280_pressure;Samples;Min_cycle;Max_cycle;Signal;HPM_P1;HPM_P2
2023/04/08 00:00:13;;;;;;;11.95;7.00;;;4.40;99.90;;;;;;5098689;27;20374;-46
2023/04/08 00:02:39;;;;;;;12.77;7.25;;;;;;;;;;5097432;27;20058;-47
2023/04/08 00:05:06;;;;;;;11.00;6.65;;;4.10;99.90;;;;;;5097614;27;20044;-48
2023/04/08 00:07:32;;;;;;;10.57;7.25;;;;;;;;;;5096334;27;20198;-47
2023/04/08 00:09:58;;;;;;;9.32;6.93;;;;;;;;;;5098904;27;20055;-48
2023/04/08 00:12:25;;;;;;;12.63;7.75;;;;;;;;;;5096968;27;20408;-49
2023/04/08 00:14:51;;;;;;;12.93;8.20;;;;;;;;;;5096110;28;20130;-50
2023/04/08 00:17:17;;;;;;;10.13;7.68;;;;;;;;;;5095607;28;20040;-48
2023/04/08 00:19:43;;;;;;;13.80;8.05;;;;;;;;;;5095620;27;20055;-49
2023/04/08 00:22:10;;;;;;;13.10;8.02;;;;;;;;;;5096887;27;20416;-51
2023/04/08 00:24:36;;;;;;;13.48;7.43;;;;;;;;;;5094754;27;20069;-49
2023/04/08 00:27:02;;;;;;;15.05;9.43;;;;;;;;;;5095053;27;20059;-48
2023/04/08 00:29:28;;;;;;;13.57;9.50;;;;;;;;;;5096258;27;20046;-51
2023/04/08 00:31:55;;;;;;;14.55;8.88;;;;;;;;;;5095482;27;20452;-49
2023/04/08 00:34:21;;;;;;;14.77;9.45;;;;;;;;;;5095075;27;20031;-49
2023/04/08 00:36:47;;;;;;;15.25;9.52;;;;;;;;;;5094670;28;20032;-50
2023/04/08 00:39:14;;;;;;;15.23;10.30;;;;;;;;;;5096090;27;20031;-49
2023/04/08 00:41:40;;;;;;;17.83;10.00;;;;;;;;;;5095741;27;20516;-51
2023/04/08 00:44:06;;;;;;;13.65;8.98;;;;;;;;;;5095106;27;20948;-46
2023/04/08 00:46:37;;;;;;;15.05;10.82;;;3.90;99.90;;;;;;5094202;27;20150;-48
2023/04/08 00:49:04;;;;;;;15.75;10.63;;;3.90;99.90;;;;;;5076295;27;20040;-50
2023/04/08 00:51:30;;;;;;;15.85;10.50;;;;;;;;;;5095484;27;20041;-49
2023/04/08 00:53:57;;;;;;;15.23;10.85;;;;;;;;;;5077856;27;20035;-49
2023/04/08 00:56:23;;;;;;;16.02;10.40;;;3.70;99.90;;;;;;5094517;27;20032;-51
2023/04/08 00:58:53;;;;;;;15.63;11.00;;;3.80;99.90;;;;;;5076198;28;20059;-50
2023/04/08 01:01:45;;;;;;;17.85;11.60;;;3.70;99.90;;;;;;5095064;27;20837;-49
2023/04/08 01:04:29;;;;;;;18.60;11.23;;;3.90;99.90;;;;;;5094212;27;20882;-49
2023/04/08 01:07:02;;;;;;;14.40;10.13;;;5.20;99.90;;;;;;5096030;28;20050;-51
2023/04/08 01:09:31;;;;;;;16.55;11.90;;;3.70;99.90;;;;;;5095068;27;20104;-49
2023/04/08 01:12:00;;;;;;;16.23;11.73;;;3.50;99.90;;;;;;5094930;27;20567;-50
2023/04/08 01:14:27;;;;;;;17.80;12.32;;;3.50;99.90;;;;;;5095224;27;20042;-47
2023/04/08 01:16:59;;;;;;;14.95;11.25;;;3.60;99.90;;;;;;5094290;28;20184;-48
2023/04/08 01:19:29;;;;;;;17.83;11.30;;;3.60;99.90;;;;;;5095927;27;20576;-49
2023/04/08 01:22:22;;;;;;;16.45;10.18;;;3.60;99.90;;;;;;5094485;27;20058;-46
2023/04/08 01:24:49;;;;;;;;;;;3.70;99.90;;;;;;5084117;28;20063;-47
2023/04/08 01:27:16;;;;;;;19.58;12.55;;;3.60;99.90;;;;;;5095490;28;19992;-46
2023/04/08 01:29:43;;;;;;;18.23;12.40;;;3.50;99.90;;;;;;5095556;27;20032;-50
2023/04/08 01:32:09;;;;;;;16.65;11.02;;;3.50;99.90;;;;;;5094698;27;20051;-49
2023/04/08 01:34:37;;;;;;;17.65;12.35;;;3.50;99.90;;;;;;5095454;27;20567;-49
2023/04/08 01:37:05;;;;;;;19.25;13.13;;;3.40;99.90;;;;;;5095339;27;20123;-51
2023/04/08 01:39:32;;;;;;;16.92;13.13;;;3.40;99.90;;;;;;5075167;28;20039;-46
2023/04/08 01:41:59;;;;;;;16.02;11.45;;;;;;;;;;5095041;27;20035;-48
2023/04/08 01:44:26;;;;;;;17.58;13.43;;;3.40;99.90;;;;;;5075360;27;20039;-47
2023/04/08 01:46:53;;;;;;;19.13;13.18;;;3.40;99.90;;;;;;5094774;27;20119;-49
2023/04/08 01:49:20;;;;;;;19.17;12.35;;;3.30;99.90;;;;;;5094493;27;20389;-46
2023/04/08 01:51:48;;;;;;;15.98;11.93;;;3.40;99.90;;;;;;5093499;28;20097;-50
2023/04/08 01:54:14;;;;;;;18.60;13.02;;;;;;;;;;5093541;27;20046;-46
2023/04/08 01:56:43;;;;;;;20.77;13.73;;;3.40;99.90;;;;;;5095012;27;20048;-46
2023/04/08 01:59:13;;;;;;;23.30;13.43;;;3.20;99.90;;;;;;5094428;27;20055;-45
2023/04/08 02:01:39;;;;;;;19.90;14.05;;;;;;;;;;5075776;28;20051;-47
2023/04/08 02:04:05;;;;;;;18.35;13.25;;;;;;;;;;5092662;27;20119;-50
2023/04/08 02:06:32;;;;;;;20.77;15.15;;;;;;;;;;5095027;27;20051;-48
2023/04/08 02:08:59;;;;;;;20.05;14.48;;;3.40;99.90;;;;;;5095866;27;20504;-46
2023/04/08 02:11:25;;;;;;;21.48;14.95;;;;;;;;;;5093832;28;20488;-47
2023/04/08 02:13:52;;;;;;;22.70;15.32;;;3.30;99.90;;;;;;5092813;27;20046;-49
2023/04/08 02:16:31;;;;;;;19.98;14.98;;;3.30;99.90;;;;;;5093681;27;20035;-48
2023/04/08 02:19:08;;;;;;;23.60;15.27;;;3.30;99.90;;;;;;5092557;27;20043;-51
2023/04/08 02:21:51;;;;;;;19.90;15.20;;;3.10;99.90;;;;;;5094092;28;20047;-47
2023/04/08 02:24:19;;;;;;;22.52;16.33;;;3.10;99.90;;;;;;5093520;27;20066;-48
2023/04/08 02:26:49;;;;;;;20.48;15.63;;;3.20;99.90;;;;;;5094007;27;20105;-48
2023/04/08 02:29:16;;;;;;;20.33;15.32;;;3.70;99.90;;;;;;5094646;28;20043;-49
2023/04/08 02:31:43;;;;;;;23.20;15.85;;;2.80;99.90;;;;;;5093900;27;20079;-48
2023/04/08 02:34:14;;;;;;;27.50;16.10;;;2.90;99.90;;;;;;5094315;27;20043;-49
2023/04/08 02:36:41;;;;;;;20.98;15.38;;;;;;;;;;5095561;28;20055;-48
2023/04/08 02:39:07;;;;;;;21.35;15.32;;;;;;;;;;5093549;27;20367;-49
2023/04/08 02:41:34;;;;;;;22.30;15.52;;;;;;;;;;5092471;28;20047;-49
2023/04/08 02:44:00;;;;;;;25.48;16.02;;;;;;;;;;5093958;27;20189;-49
2023/04/08 02:46:26;;;;;;;20.48;14.82;;;;;;;;;;5093986;28;20047;-47
2023/04/08 02:48:52;;;;;;;20.13;14.10;;;2.90;99.90;;;;;;5092611;28;20337;-51
2023/04/08 02:51:19;;;;;;;20.92;14.82;;;;;;;;;;5092276;28;20047;-49
2023/04/08 02:53:45;;;;;;;23.98;15.07;;;;;;;;;;5093175;27;20035;-46
2023/04/08 02:56:11;;;;;;;23.50;14.93;;;;;;;;;;5095103;28;20131;-50
2023/04/08 02:58:37;;;;;;;22.02;15.32;;;;;;;;;;5093289;28;20066;-47
2023/04/08 03:01:03;;;;;;;27.35;17.15;;;;;;;;;;5092726;28;20247;-50
2023/04/08 03:03:30;;;;;;;29.52;17.20;;;;;;;;;;5092600;28;20048;-49
2023/04/08 03:05:56;;;;;;;24.98;17.50;;;2.40;99.90;;;;;;5094635;28;20086;-48
2023/04/08 03:08:23;;;;;;;27.00;17.38;;;;;;;;;;5093464;28;20034;-48
2023/04/08 03:10:49;;;;;;;26.08;16.67;;;;;;;;;;5077838;28;20096;-48
2023/04/08 03:13:16;;;;;;;25.38;17.15;;;2.50;99.90;;;;;;5097474;27;20081;-50
2023/04/08 03:15:42;;;;;;;26.58;18.92;;;;;;;;;;5097011;27;20069;-50
2023/04/08 03:18:08;;;;;;;29.00;18.15;;;;;;;;;;5097978;27;20112;-50
2023/04/08 03:20:35;;;;;;;27.85;18.30;;;;;;;;;;5095674;27;20043;-49
2023/04/08 03:23:01;;;;;;;24.88;17.95;;;;;;;;;;5096838;27;20515;-48
2023/04/08 03:25:28;;;;;;;23.50;17.33;;;;;;;;;;5098284;27;20032;-47
2023/04/08 03:27:54;;;;;;;26.58;17.92;;;;;;;;;;5097038;28;20047;-47
2023/04/08 03:30:20;;;;;;;28.92;17.23;;;;;;;;;;5096543;27;20044;-49
2023/04/08 03:32:47;;;;;;;23.92;16.90;;;;;;;;;;5096884;27;20085;-48
2023/04/08 03:35:13;;;;;;;25.58;17.50;;;;;;;;;;5096494;27;20043;-50
2023/04/08 03:37:39;;;;;;;25.27;17.70;;;;;;;;;;5097255;27;20047;-51
2023/04/08 03:40:05;;;;;;;27.15;18.70;;;;;;;;;;5096053;28;20036;-48
2023/04/08 03:42:32;;;;;;;25.77;17.08;;;;;;;;;;5096907;27;20051;-49
2023/04/08 03:44:58;;;;;;;26.65;17.60;;;;;;;;;;5096595;27;20055;-52
2023/04/08 03:47:24;;;;;;;27.77;19.35;;;;;;;;;;5077576;28;20478;-47
2023/04/08 03:49:53;;;;;;;27.70;18.65;;;2.10;99.90;;;;;;5095755;27;20496;-48
2023/04/08 03:52:19;;;;;;;29.33;19.05;;;;;;;;;;5096838;27;20874;-50
2023/04/08 03:54:45;;;;;;;28.55;20.58;;;;;;;;;;5096640;27;20531;-47
2023/04/08 03:57:12;;;;;;;31.63;19.90;;;;;;;;;;5096324;27;20127;-49
2023/04/08 03:59:39;;;;;;;35.33;19.90;;;;;;;;;;5078909;28;20047;-50
2023/04/08 04:02:06;;;;;;;32.28;20.75;;;;;;;;;;5077562;28;20124;-51
2023/04/08 04:04:32;;;;;;;32.80;20.92;;;;;;;;;;5094801;27;20031;-50
2023/04/08 04:06:58;;;;;;;33.92;21.45;;;;;;;;;;5097147;27;20100;-48
2023/04/08 04:09:25;;;;;;;34.67;22.45;;;;;;;;;;5096110;27;20138;-49
2023/04/08 04:11:51;;;;;;;38.65;21.75;;;;;;;;;;5095482;27;20126;-51
2023/04/08 04:14:17;;;;;;;33.83;22.10;;;;;;;;;;5096960;27;20047;-49
2023/04/08 04:16:43;;;;;;;36.05;23.38;;;;;;;;;;5097229;27;20104;-48
2023/04/08 04:19:09;;;;;;;34.65;22.45;;;;;;;;;;5095928;27;20043;-51
2023/04/08 04:21:35;;;;;;;36.88;22.45;;;;;;;;;;5093580;27;20645;-50
2023/04/08 04:24:01;;;;;;;37.05;22.55;;;;;;;;;;5094923;28;20074;-51
2023/04/08 04:26:27;;;;;;;37.78;23.85;;;;;;;;;;5096476;27;20035;-49
2023/04/08 04:28:53;;;;;;;37.10;23.42;;;;;;;;;;5095787;27;20551;-51
2023/04/08 04:31:20;;;;;;;37.25;23.63;;;;;;;;;;5096479;27;20063;-49
2023/04/08 04:33:46;;;;;;;40.47;25.23;;;;;;;;;;5095618;27;20048;-52
2023/04/08 04:36:13;;;;;;;39.35;24.85;;;;;;;;;;5097484;27;20047;-47
2023/04/08 04:38:39;;;;;;;34.70;22.75;;;;;;;;;;5096337;27;20159;-49
2023/04/08 04:41:05;;;;;;;39.88;23.65;;;;;;;;;;5095678;27;20051;-49
2023/04/08 04:43:32;;;;;;;40.30;24.20;;;;;;;;;;5096425;27;20111;-51
2023/04/08 04:45:58;;;;;;;42.08;25.65;;;;;;;;;;5078862;28;20043;-49
2023/04/08 04:48:24;;;;;;;41.08;25.88;;;;;;;;;;5094566;27;20035;-49
2023/04/08 04:50:57;;;;;;;43.92;24.80;;;1.70;99.90;;;;;;5096186;27;20100;-51
2023/04/08 04:53:24;;;;;;;45.35;26.52;;;;;;;;;;5095646;27;20123;-50
2023/04/08 04:55:50;;;;;;;45.28;25.50;;;1.50;99.90;;;;;;5094358;27;20043;-49
2023/04/08 04:58:16;;;;;;;39.17;25.15;;;;;;;;;;5095290;27;20579;-50
2023/04/08 05:00:43;;;;;;;40.75;22.92;;;;;;;;;;5096578;27;20054;-49
2023/04/08 05:03:09;;;;;;;44.88;26.83;;;;;;;;;;5093759;27;20558;-49
2023/04/08 05:05:35;;;;;;;41.03;24.60;;;;;;;;;;5093677;28;20058;-49
2023/04/08 05:08:01;;;;;;;38.65;23.95;;;;;;;;;;5096487;27;20040;-47
2023/04/08 05:10:27;;;;;;;41.97;25.48;;;;;;;;;;5094930;27;20096;-49
2023/04/08 05:12:53;;;;;;;48.00;27.13;;;;;;;;;;5095876;27;20559;-48
2023/04/08 05:15:19;;;;;;;42.88;26.88;;;1.90;99.90;;;;;;5094343;27;20141;-48
2023/04/08 05:17:45;;;;;;;51.65;29.25;;;;;;;;;;5095413;28;21785;-50
2023/04/08 05:20:12;;;;;;;53.10;27.55;;;;;;;;;;5095292;27;20400;-52
2023/04/08 05:22:38;;;;;;;51.53;31.63;;;;;;;;;;5094815;27;20077;-47
2023/04/08 05:25:04;;;;;;;53.63;31.48;;;2.00;99.90;;;;;;5094606;27;20043;-48
2023/04/08 05:27:30;;;;;;;54.50;31.52;;;;;;;;;;5095222;27;20387;-49
2023/04/08 05:29:57;;;;;;;48.45;28.30;;;;;;;;;;5093982;27;20149;-48
2023/04/08 05:32:23;;;;;;;45.13;26.92;;;;;;;;;;5094873;27;20039;-48
2023/04/08 05:34:49;;;;;;;45.60;28.67;;;;;;;;;;5095390;27;20053;-48
2023/04/08 05:37:15;;;;;;;37.90;25.98;;;;;;;;;;5096015;27;20061;-50
2023/04/08 05:39:41;;;;;;;36.25;22.98;;;;;;;;;;5093953;27;20039;-46
2023/04/08 05:42:07;;;;;;;37.60;25.50;;;;;;;;;;5093867;28;20052;-48
2023/04/08 05:44:34;;;;;;;36.75;24.45;;;;;;;;;;5096160;27;20047;-48
2023/04/08 05:47:00;;;;;;;38.25;23.85;;;;;;;;;;5093571;28;20109;-48
2023/04/08 05:49:26;;;;;;;36.05;23.23;;;;;;;;;;5093375;28;20039;-50
2023/04/08 05:51:52;;;;;;;43.63;26.13;;;;;;;;;;5093169;27;20050;-48
2023/04/08 05:54:18;;;;;;;39.03;24.05;;;;;;;;;;5094053;27;20039;-50
2023/04/08 05:56:45;;;;;;;36.38;25.45;;;;;;;;;;5093297;27;20515;-49
2023/04/08 05:59:11;;;;;;;39.20;25.65;;;;;;;;;;5092456;27;20043;-49
2023/04/08 06:01:37;;;;;;;43.50;26.60;;;;;;;;;;5093571;27;20052;-49
2023/04/08 06:04:04;;;;;;;38.75;25.75;;;;;;;;;;5092111;27;20043;-49
2023/04/08 06:06:30;;;;;;;38.78;28.05;;;;;;;;;;5092986;27;20047;-49
2023/04/08 06:08:56;;;;;;;44.30;28.23;;;;;;;;;;5092416;28;20042;-49
2023/04/08 06:11:22;;;;;;;39.97;26.60;;;;;;;;;;5093262;28;20119;-47
2023/04/08 06:13:48;;;;;;;36.92;26.25;;;;;;;;;;5093762;27;20421;-49
2023/04/08 06:16:18;;;;;;;38.42;25.48;;;3.20;99.90;;;;;;5093310;28;20032;-47
2023/04/08 06:18:44;;;;;;;37.33;26.67;;;;;;;;;;5074545;28;20066;-51
2023/04/08 06:21:10;;;;;;;40.83;28.50;;;;;;;;;;5091194;27;20381;-51
2023/04/08 06:23:37;;;;;;;40.00;26.75;;;;;;;;;;5074802;27;20321;-50
2023/04/08 06:26:03;;;;;;;33.55;23.13;;;;;;;;;;5092728;27;20648;-51
2023/04/08 06:28:30;;;;;;;30.00;20.60;;;;;;;;;;5090605;28;20066;-50
2023/04/08 06:30:56;;;;;;;41.03;25.48;;;;;;;;;;5092293;28;20440;-52
2023/04/08 06:33:22;;;;;;;35.53;25.20;;;;;;;;;;5093171;27;20198;-49
2023/04/08 06:35:48;;;;;;;35.28;25.27;;;;;;;;;;5091531;28;20134;-49
2023/04/08 06:38:14;;;;;;;37.13;26.88;;;;;;;;;;5092113;28;20057;-50
2023/04/08 06:40:40;;;;;;;36.55;26.23;;;;;;;;;;5092377;28;20419;-51
2023/04/08 06:43:07;;;;;;;36.75;26.35;;;;;;;;;;5092428;28;20079;-51
2023/04/08 06:45:33;;;;;;;33.60;24.60;;;5.20;99.90;;;;;;5093270;28;20042;-50
2023/04/08 06:48:00;;;;;;;33.70;24.55;;;;;;;;;;5093758;28;20462;-49
2023/04/08 06:50:25;;;;;;;28.02;23.35;;;6.60;99.90;;;;;;5094431;28;20044;-51
2023/04/08 06:52:51;;;;;;;27.13;20.52;;;8.40;99.90;;;;;;5092457;28;20043;-48
2023/04/08 06:55:17;;;;;;;26.38;20.40;;;9.40;99.90;;;;;;5092202;28;20051;-49
2023/04/08 06:57:43;;;;;;;23.35;17.85;;;10.90;99.90;;;;;;5094425;27;20114;-49
2023/04/08 07:00:09;;;;;;;22.45;18.48;;;11.40;99.90;;;;;;5092481;28;20073;-48
2023/04/08 07:02:35;;;;;;;20.27;16.83;;;10.90;99.90;;;;;;5093043;28;20077;-50
2023/04/08 07:05:01;;;;;;;20.58;17.65;;;10.10;99.90;;;;;;5094637;28;20407;-46
2023/04/08 07:07:27;;;;;;;19.58;16.00;;;9.40;99.90;;;;;;5093643;28;20043;-47
2023/04/08 07:09:52;;;;;;;22.08;16.90;;;8.90;99.90;;;;;;5093297;28;20071;-50
2023/04/08 07:12:18;;;;;;;20.90;17.30;;;6.20;99.90;;;;;;5093366;28;20047;-52
2023/04/08 07:14:44;;;;;;;21.30;17.50;;;8.20;99.90;;;;;;5093775;28;20051;-52
2023/04/08 07:17:09;;;;;;;24.33;17.75;;;7.90;99.90;;;;;;5092143;28;20036;-50
2023/04/08 07:19:36;;;;;;;21.17;16.67;;;7.80;99.90;;;;;;5074264;28;20058;-52
2023/04/08 07:22:02;;;;;;;21.48;16.35;;;7.70;99.90;;;;;;5093676;28;20047;-52
2023/04/08 07:24:27;;;;;;;23.27;17.55;;;9.20;99.90;;;;;;5091113;28;20054;-51
2023/04/08 07:26:55;;;;;;;25.60;17.33;;;7.60;99.90;;;;;;5091777;28;20039;-49
2023/04/08 07:29:21;;;;;;;20.00;16.15;;;8.10;99.90;;;;;;5091438;28;20131;-52
2023/04/08 07:31:47;;;;;;;21.42;16.30;;;8.80;99.90;;;;;;5092825;28;20043;-50
2023/04/08 07:34:12;;;;;;;20.13;16.85;;;9.20;99.90;;;;;;5091959;28;20050;-49
2023/04/08 07:36:39;;;;;;;23.85;19.73;;;9.40;99.90;;;;;;5092884;28;20044;-52
2023/04/08 07:39:05;;;;;;;24.27;19.98;;;9.50;99.90;;;;;;5094503;28;20081;-52
2023/04/08 07:41:31;;;;;;;24.52;18.42;;;9.40;99.90;;;;;;5092271;28;20486;-49
2023/04/08 07:43:56;;;;;;;21.30;17.08;;;9.60;99.90;;;;;;5091968;28;20097;-48
2023/04/08 07:46:22;;;;;;;24.13;19.15;;;9.80;99.90;;;;;;5093895;28;20990;-50
2023/04/08 07:48:48;;;;;;;22.77;16.90;;;10.00;99.90;;;;;;5091678;28;20071;-51
2023/04/08 07:51:14;;;;;;;24.25;18.92;;;9.40;99.90;;;;;;5091963;28;20047;-51
2023/04/08 07:53:40;;;;;;;25.35;20.48;;;8.70;99.90;;;;;;5093673;28;20067;-50
2023/04/08 07:56:13;;;;;;;25.77;19.50;;;8.50;99.90;;;;;;5095808;27;20107;-49
2023/04/08 07:58:39;;;;;;;25.63;20.63;;;8.40;99.90;;;;;;5096718;27;20047;-48
2023/04/08 08:01:19;;;;;;;25.60;20.15;;;8.50;99.90;;;;;;5077672;28;20055;-50
2023/04/08 08:03:46;;;;;;;22.27;17.65;;;8.50;99.90;;;;;;5096049;27;20048;-49
2023/04/08 08:06:12;;;;;;;25.08;20.27;;;8.60;99.90;;;;;;5095735;27;20043;-48
2023/04/08 08:08:38;;;;;;;24.27;19.45;;;8.50;99.90;;;;;;5096886;27;20048;-48
2023/04/08 08:11:04;;;;;;;22.92;17.90;;;9.30;99.90;;;;;;5094894;27;20044;-49
2023/04/08 08:13:30;;;;;;;22.08;19.63;;;9.30;99.90;;;;;;5097105;27;20036;-48
2023/04/08 08:15:56;;;;;;;21.80;17.98;;;9.10;99.90;;;;;;5076780;28;20048;-50
2023/04/08 08:18:21;;;;;;;25.05;17.83;;;8.80;99.90;;;;;;5095537;27;20396;-47
2023/04/08 08:20:47;;;;;;;23.50;18.50;;;8.80;99.90;;;;;;5095583;27;20131;-48
2023/04/08 08:23:16;;;;;;;23.77;19.27;;;8.50;99.90;;;;;;5096551;27;20047;-49
2023/04/08 08:25:42;;;;;;;21.48;15.70;;;8.50;99.90;;;;;;5079008;28;20127;-50
2023/04/08 08:28:08;;;;;;;24.25;18.50;;;9.00;99.90;;;;;;5095964;27;20429;-50
2023/04/08 08:30:34;;;;;;;22.05;17.55;;;8.00;99.90;;;;;;5095551;27;20051;-49
2023/04/08 08:33:00;;;;;;;21.38;18.48;;;8.20;99.90;;;;;;5096142;28;20755;-52
2023/04/08 08:35:26;;;;;;;23.08;16.23;;;8.10;99.90;;;;;;5095355;27;20097;-48
2023/04/08 08:37:52;;;;;;;21.20;17.83;;;6.90;99.90;;;;;;5094745;27;20042;-50
2023/04/08 08:40:18;;;;;;;22.30;17.80;;;8.20;99.90;;;;;;5095914;27;20093;-48
2023/04/08 08:42:51;;;;;;;19.95;16.88;;;8.40;99.90;;;;;;5094912;27;20130;-49
2023/04/08 08:45:19;;;;;;;22.23;18.52;;;8.80;99.90;;;;;;5094968;27;20090;-51
2023/04/08 08:47:45;;;;;;;19.10;15.23;;;8.60;99.90;;;;;;5094745;27;20530;-46
2023/04/08 08:50:11;;;;;;;19.33;16.10;;;8.60;99.90;;;;;;5093896;27;20035;-51
2023/04/08 08:52:36;;;;;;;17.65;13.98;;;8.50;99.90;;;;;;5093637;27;20040;-51
2023/04/08 08:55:02;;;;;;;22.27;16.15;;;8.30;99.90;;;;;;5094983;27;20080;-51
2023/04/08 08:57:28;;;;;;;21.15;15.90;;;8.70;99.90;;;;;;5076054;27;20047;-50
2023/04/08 08:59:54;;;;;;;22.10;16.45;;;8.50;99.90;;;;;;5094676;27;20085;-46
2023/04/08 09:02:29;;;;;;;20.67;16.05;;;9.40;99.90;;;;;;5094454;28;20036;-50
2023/04/08 09:05:00;;;;;;;22.92;16.50;;;8.30;99.90;;;;;;5093680;27;20114;-51
2023/04/08 09:07:27;;;;;;;22.95;17.00;;;8.30;99.90;;;;;;5092589;27;20080;-50
2023/04/08 09:09:54;;;;;;;23.83;17.77;;;8.10;99.90;;;;;;5095091;27;20064;-49
2023/04/08 09:12:21;;;;;;;22.38;16.73;;;8.70;99.90;;;;;;5077117;28;20156;-49
2023/04/08 09:14:47;;;;;;;27.80;18.20;;;8.00;99.90;;;;;;5096412;27;20202;-52
2023/04/08 09:17:13;;;;;;;23.05;16.33;;;9.00;99.90;;;;;;5094339;28;20403;-51
2023/04/08 09:19:39;;;;;;;19.63;13.63;;;8.80;99.90;;;;;;5094200;27;20044;-51
2023/04/08 09:22:06;;;;;;;23.17;16.98;;;8.00;99.90;;;;;;5093286;27;20543;-50
2023/04/08 09:24:33;;;;;;;22.27;16.92;;;9.30;99.90;;;;;;5095914;27;20054;-51
2023/04/08 09:26:59;;;;;;;23.70;15.85;;;7.80;99.90;;;;;;5094550;27;20567;-50
2023/04/08 09:29:26;;;;;;;24.55;19.17;;;7.60;99.90;;;;;;5093945;27;20050;-51
2023/04/08 09:31:57;;;;;;;27.67;19.63;;;7.60;99.90;;;;;;5095055;27;20108;-52
2023/04/08 09:34:24;;;;;;;24.75;19.45;;;7.60;99.90;;;;;;5093833;27;20049;-51
2023/04/08 09:36:51;;;;;;;24.17;18.00;;;7.20;99.90;;;;;;5075641;28;20426;-50
2023/04/08 09:39:17;;;;;;;22.75;15.93;;;9.00;99.90;;;;;;5096775;27;20066;-47
2023/04/08 09:41:43;;;;;;;22.55;15.68;;;7.40;99.90;;;;;;5095481;27;20125;-49
2023/04/08 09:44:10;;;;;;;17.50;12.98;;;7.40;99.90;;;;;;5094595;27;20052;-46
2023/04/08 09:46:40;;;;;;;19.45;13.60;;;7.20;99.90;;;;;;5094037;27;20051;-50
2023/04/08 09:49:08;;;;;;;17.05;12.48;;;6.80;99.90;;;;;;5093486;28;20100;-52
2023/04/08 09:51:48;;;;;;;15.77;11.35;;;7.20;99.90;;;;;;5094001;27;20070;-52
2023/04/08 09:54:22;;;;;;;19.63;13.45;;;7.30;99.90;;;;;;5094501;27;20839;-49
2023/04/08 09:56:57;;;;;;;17.80;12.88;;;8.00;99.90;;;;;;5095338;27;20055;-50
2023/04/08 09:59:26;;;;;;;18.98;14.20;;;9.10;99.90;;;;;;5093659;27;20524;-51
2023/04/08 10:01:53;;;;;;;15.77;11.18;;;7.40;99.90;;;;;;5093370;27;20055;-49
2023/04/08 10:04:21;;;;;;;15.68;11.65;;;9.10;99.90;;;;;;5095078;27;20230;-50
2023/04/08 10:06:56;;;;;;;18.88;13.15;;;8.40;99.90;;;;;;5093611;27;20059;-51
2023/04/08 10:09:22;;;;;;;17.77;12.35;;;7.90;99.90;;;;;;5094821;28;20114;-49
2023/04/08 10:11:48;;;;;;;18.92;13.13;;;8.20;99.90;;;;;;5095435;27;20210;-51
2023/04/08 10:14:14;;;;;;;18.00;12.90;;;7.60;99.90;;;;;;5094147;27;20392;-51
2023/04/08 10:16:40;;;;;;;17.70;13.13;;;7.60;99.90;;;;;;5094435;27;20032;-51
2023/04/08 10:19:44;;;;;;;19.05;14.13;;;7.60;99.90;;;;;;5093435;28;20132;-50
2023/04/08 10:22:27;;;;;;;18.67;12.60;;;7.80;99.90;;;;;;5089179;28;20055;-50
2023/04/08 10:25:18;;;;;;;16.27;12.15;;;8.00;99.90;;;;;;5092334;27;20113;-49
2023/04/08 10:27:44;;;;;;;20.52;12.98;;;8.10;99.90;;;;;;5091505;27;20442;-51
2023/04/08 10:30:30;;;;;;;18.33;12.60;;;8.00;99.90;;;;;;5093152;27;20392;-50
2023/04/08 10:33:00;;;;;;;17.67;10.93;;;8.20;99.90;;;;;;5094269;27;20082;-51
2023/04/08 10:35:33;;;;;;;34.60;20.27;;;8.60;99.90;;;;;;5093611;28;20039;-50
2023/04/08 10:37:59;;;;;;;33.63;19.75;;;8.50;99.90;;;;;;5092382;27;20046;-51
2023/04/08 10:40:25;;;;;;;65.65;35.03;;;8.20;99.90;;;;;;5094088;27;20034;-50
2023/04/08 10:42:57;;;;;;;30.48;19.58;;;8.20;99.90;;;;;;5092892;28;20433;-50
2023/04/08 10:45:24;;;;;;;23.33;16.40;;;10.00;99.90;;;;;;5093326;28;20122;-49
2023/04/08 10:47:50;;;;;;;21.48;15.57;;;8.00;99.90;;;;;;5074326;28;20043;-51
2023/04/08 10:50:18;;;;;;;21.58;16.50;;;8.00;99.90;;;;;;5092832;27;20036;-50
2023/04/08 10:52:52;;;;;;;19.20;14.25;;;8.10;99.90;;;;;;5092370;28;20560;-50
2023/04/08 10:55:28;;;;;;;20.63;16.45;;;8.00;99.90;;;;;;5094148;27;20067;-50
2023/04/08 10:57:54;;;;;;;19.45;14.90;;;7.90;99.90;;;;;;5092988;28;20043;-49
2023/04/08 11:00:32;;;;;;;21.27;15.15;;;8.00;99.90;;;;;;5091641;28;20038;-50
2023/04/08 11:03:09;;;;;;;20.10;13.95;;;7.90;99.90;;;;;;5094391;28;20032;-48
2023/04/08 11:05:36;;;;;;;19.98;14.48;;;8.20;99.90;;;;;;5091511;28;20480;-49
2023/04/08 11:08:03;;;;;;;18.67;13.43;;;8.20;99.90;;;;;;5092467;28;20471;-51
2023/04/08 11:10:28;;;;;;;19.17;13.50;;;8.20;99.90;;;;;;5094977;28;20051;-49
2023/04/08 11:12:55;;;;;;;18.80;12.85;;;8.40;99.90;;;;;;5092117;28;20043;-51
2023/04/08 11:15:22;;;;;;;16.83;11.18;;;8.50;99.90;;;;;;5092199;28;20150;-50
2023/04/08 11:17:49;;;;;;;18.30;12.38;;;9.30;99.90;;;;;;5093210;28;20043;-50
2023/04/08 11:20:15;;;;;;;18.25;13.35;;;8.90;99.90;;;;;;5092688;28;20074;-49
2023/04/08 11:22:42;;;;;;;20.58;14.18;;;8.90;99.90;;;;;;5092215;28;20078;-51
2023/04/08 11:25:09;;;;;;;18.52;12.57;;;9.00;99.90;;;;;;5092612;28;20036;-50
2023/04/08 11:27:35;;;;;;;20.05;13.30;;;9.00;99.90;;;;;;5092432;28;20135;-48
2023/04/08 11:30:02;;;;;;;21.90;15.52;;;9.00;99.90;;;;;;5093472;28;20466;-52
2023/04/08 11:32:28;;;;;;;20.45;15.68;;;9.00;99.90;;;;;;5096589;27;20524;-52
2023/04/08 11:34:54;;;;;;;21.95;15.23;;;9.90;99.90;;;;;;5096908;27;20047;-50
2023/04/08 11:37:21;;;;;;;21.90;13.82;;;9.20;99.90;;;;;;5095635;27;20039;-48
2023/04/08 11:39:46;;;;;;;27.35;18.50;;;9.10;99.90;;;;;;5096985;27;20051;-51
2023/04/08 11:42:32;;;;;;;23.27;16.33;;;9.30;99.90;;;;;;5095870;27;20055;-51
2023/04/08 11:44:58;;;;;;;20.88;13.65;;;8.80;99.90;;;;;;5094979;27;20130;-50
2023/04/08 11:47:33;;;;;;;22.40;15.32;;;8.90;99.90;;;;;;5095314;28;20075;-51
2023/04/08 11:50:00;;;;;;;23.55;17.33;;;9.00;99.90;;;;;;5096213;27;20039;-49
2023/04/08 11:52:46;;;;;;;25.50;18.33;;;9.00;99.90;;;;;;5095965;27;20507;-50
2023/04/08 11:55:31;;;;;;;30.30;18.58;;;8.90;99.90;;;;;;5094988;27;20035;-48
2023/04/08 11:58:03;;;;;;;29.92;19.40;;;8.90;99.90;;;;;;5095594;27;20051;-50
2023/04/08 12:00:28;;;;;;;31.97;19.30;;;8.90;99.90;;;;;;5095663;27;20400;-50
2023/04/08 12:02:54;;;;;;;29.00;19.48;;;8.90;99.90;;;;;;5096304;27;20047;-49
2023/04/08 12:05:20;;;;;;;30.75;19.65;;;8.90;99.90;;;;;;5094421;27;20040;-49
2023/04/08 12:07:46;;;;;;;30.42;18.73;;;9.00;99.90;;;;;;5094937;27;20934;-51
2023/04/08 12:10:13;;;;;;;29.58;20.50;;;9.00;99.90;;;;;;5096742;27;20399;-48
2023/04/08 12:12:39;;;;;;;28.90;20.23;;;9.00;99.90;;;;;;5095412;27;20097;-52
2023/04/08 12:15:10;;;;;;;29.08;19.95;;;9.00;99.90;;;;;;5095066;27;20039;-52
2023/04/08 12:17:37;;;;;;;29.27;17.98;;;9.10;99.90;;;;;;5095417;27;20489;-52
2023/04/08 12:20:04;;;;;;;29.30;18.38;;;9.10;99.90;;;;;;5095508;27;20831;-48
2023/04/08 12:22:30;;;;;;;26.13;17.38;;;9.40;99.90;;;;;;5075730;28;20682;-50
2023/04/08 12:24:56;;;;;;;30.65;17.05;;;9.40;99.90;;;;;;5060504;28;20402;-51
2023/04/08 12:27:21;;;;;;;28.17;17.70;;;9.30;99.90;;;;;;5093922;27;20071;-50
2023/04/08 12:29:48;;;;;;;28.15;18.90;;;9.40;99.90;;;;;;5092937;27;20036;-51
2023/04/08 12:32:14;;;;;;;31.98;21.92;;;9.40;99.90;;;;;;5096262;27;20040;-52
2023/04/08 12:34:40;;;;;;;27.02;19.02;;;9.50;99.90;;;;;;5095356;27;20035;-50
2023/04/08 12:37:06;;;;;;;35.33;20.25;;;9.60;99.90;;;;;;5095209;28;20044;-51
2023/04/08 12:39:31;;;;;;;28.17;17.95;;;9.50;99.90;;;;;;5096024;28;20043;-51
2023/04/08 12:41:58;;;;;;;26.52;15.95;;;9.80;99.90;;;;;;5093818;27;20046;-47
2023/04/08 12:44:24;;;;;;;28.02;18.50;;;9.70;99.90;;;;;;5076784;28;20039;-52
2023/04/08 12:46:50;;;;;;;33.05;20.92;;;9.60;99.90;;;;;;5095164;27;20419;-50
2023/04/08 12:49:16;;;;;;;34.78;19.13;;;9.50;99.90;;;;;;5094349;27;20097;-50
2023/04/08 12:51:41;;;;;;;26.52;17.02;;;9.70;99.90;;;;;;5094299;28;20032;-49
2023/04/08 12:54:07;;;;;;;30.33;18.35;;;9.60;99.90;;;;;;5095832;27;20048;-51
2023/04/08 12:56:33;;;;;;;27.77;18.40;;;9.60;99.90;;;;;;5094401;27;20055;-50
2023/04/08 12:59:00;;;;;;;26.60;16.75;;;9.60;99.90;;;;;;5093955;27;20067;-52
2023/04/08 13:01:26;;;;;;;25.35;17.63;;;9.70;99.90;;;;;;5096801;27;20128;-49
2023/04/08 13:03:51;;;;;;;28.85;19.02;;;9.70;99.90;;;;;;5093939;27;20563;-48
2023/04/08 13:06:17;;;;;;;30.40;19.75;;;9.60;99.90;;;;;;5094933;27;20101;-51
2023/04/08 13:08:43;;;;;;;25.67;18.83;;;9.20;99.90;;;;;;5095251;27;20122;-50
2023/04/08 13:11:08;;;;;;;25.48;18.50;;;9.60;99.90;;;;;;5096162;27;20043;-51
2023/04/08 13:13:34;;;;;;;26.05;17.55;;;9.50;99.90;;;;;;5094451;27;20058;-49